Time;durP1;ratioP1;P1;durP2;ratioP2;P2;SDS_P1;SDS_P2;PMS_P1;PMS_P2;Temp;Humidity;BMP_temperature;BMP_pressure;BME280_temperature;BME280_humidity;BME280_pressure;Samples;Min_cycle;Max_cycle;Signal;HPM_P1;HPM_P2
2022/10/15 00:00:41;;;;;;;29.42;22.48;;;;;;;10.12;100.00;100582.59;6302786;22;20006;-87
2022/10/15 00:03:06;;;;;;;32.13;22.83;;;;;;;10.07;100.00;100581.94;6301388;22;20025;-86
2022/10/15 00:05:35;;;;;;;32.05;24.58;;;;;;;10.04;100.00;100584.78;6275207;22;20023;-86
2022/10/15 00:08:00;;;;;;;32.88;24.70;;;;;;;10.00;100.00;100580.56;6273414;22;20004;-85
2022/10/15 00:10:26;;;;;;;30.20;21.55;;;;;;;9.92;100.00;100580.97;6301732;22;20433;-86
2022/10/15 00:12:51;;;;;;;30.30;22.88;;;;;;;9.94;100.00;100582.59;6302642;22;20009;-86
2022/10/15 00:15:16;;;;;;;31.98;24.25;;;;;;;9.96;100.00;100585.19;6302162;22;20337;-86
2022/10/15 00:17:42;;;;;;;31.55;23.85;;;;;;;10.00;100.00;100591.22;6301646;22;20035;-86
2022/10/15 00:20:09;;;;;;;36.88;25.17;;;;;;;9.95;100.00;100579.03;6303172;22;20010;-86
2022/10/15 00:22:35;;;;;;;33.20;24.48;;;;;;;9.98;100.00;100584.16;6303347;22;20102;-85
2022/10/15 00:25:00;;;;;;;30.45;24.20;;;;;;;10.00;100.00;100593.88;6274307;22;19999;-87
2022/10/15 00:27:26;;;;;;;31.95;24.70;;;;;;;9.97;100.00;100589.56;6273659;22;20007;-86
2022/10/15 00:29:51;;;;;;;33.38;25.13;;;;;;;10.02;100.00;100584.84;6301992;22;20011;-86
2022/10/15 00:32:16;;;;;;;32.58;24.85;;;;;;;10.06;100.00;100582.91;6301077;22;20004;-86
2022/10/15 00:34:42;;;;;;;34.90;25.58;;;;;;;10.12;100.00;100579.94;6273816;22;20010;-84
2022/10/15 00:37:08;;;;;;;31.45;24.45;;;;;;;10.19;100.00;100583.97;6300383;22;20306;-85
2022/10/15 00:39:34;;;;;;;32.28;24.20;;;;;;;10.20;100.00;100583.03;6301841;22;20003;-86
2022/10/15 00:41:59;;;;;;;29.73;23.92;;;;;;;10.17;100.00;100575.22;6302149;22;19999;-86
2022/10/15 00:44:25;;;;;;;31.27;24.58;;;;;;;10.27;100.00;100588.91;6301401;22;20014;-86
2022/10/15 00:46:55;;;;;;;33.15;24.05;;;;;;;10.26;100.00;100579.22;6301832;22;20010;-85
2022/10/15 00:49:31;;;;;;;31.27;24.75;;;;;;;10.33;100.00;100594.78;6300402;22;20007;-85
2022/10/15 00:52:01;;;;;;;33.35;25.48;;;;;;;10.37;100.00;100587.50;6274805;22;20332;-86
2022/10/15 00:54:32;;;;;;;39.70;28.95;;;;;;;10.46;100.00;100597.63;6310106;22;20076;-85
2022/10/15 00:56:58;;;;;;;33.47;26.92;;;;;;;10.52;100.00;100596.44;6311213;22;20090;-85
2022/10/15 00:59:26;;;;;;;37.22;29.13;;;;;;;10.51;100.00;100581.41;6304678;22;20000;-86
2022/10/15 01:01:52;;;;;;;35.13;27.23;;;;;;;10.59;100.00;100596.00;6312879;22;20089;-85
2022/10/15 01:04:18;;;;;;;35.40;27.15;;;;;;;10.60;100.00;100589.75;6314215;22;20003;-85
2022/10/15 01:06:45;;;;;;;37.63;27.70;;;;;;;10.65;100.00;100598.31;6312662;22;20073;-86
2022/10/15 01:09:11;;;;;;;36.17;29.48;;;;;;;10.70;100.00;100598.94;6308772;22;20006;-86
2022/10/15 01:11:39;;;;;;;35.53;27.52;;;;;;;10.75;100.00;100595.19;6303155;22;20007;-88
2022/10/15 01:14:11;;;;;;;38.00;30.83;;;;;;;10.81;100.00;100598.34;6302374;22;20028;-85
2022/10/15 01:16:48;;;;;;;41.17;31.13;;;;;;;10.86;100.00;100593.59;6302843;22;20060;-85
2022/10/15 01:19:16;;;;;;;40.45;30.90;;;;;;;10.88;100.00;100582.88;6274450;22;20023;-86
2022/10/15 01:22:01;;;;;;;39.28;30.08;;;;;;;10.91;100.00;100583.59;6302695;22;20011;-87
2022/10/15 01:25:07;;;;;;;38.08;30.92;;;;;;;10.97;100.00;100587.69;6302039;22;20007;-87
2022/10/15 01:27:37;;;;;;;39.67;31.75;;;;;;;11.00;100.00;100573.34;6302405;22;20010;-87
2022/10/15 01:30:27;;;;;;;40.05;30.83;;;;;;;11.01;100.00;100565.28;6305039;22;20062;-88
2022/10/15 01:32:56;;;;;;;39.00;31.38;;;;;;;11.05;100.00;100566.81;6306306;22;20396;-89
2022/10/15 01:35:40;;;;;;;40.28;31.10;;;;;;;11.06;100.00;100560.53;6305012;22;20056;-86
2022/10/15 01:38:14;;;;;;;44.67;32.33;;;;;;;11.10;100.00;100558.56;6304497;22;20083;-86
2022/10/15 01:41:07;;;;;;;39.55;31.40;;;;;;;11.11;100.00;100557.59;6306894;22;20182;-87
2022/10/15 01:43:39;;;;;;;41.47;32.88;;;;;;;11.10;100.00;100553.22;6311162;22;20057;-86
2022/10/15 01:46:10;;;;;;;43.00;32.75;;;;;;;11.14;100.00;100557.44;6313228;22;19999;-88
2022/10/15 01:48:37;;;;;;;42.10;33.08;;;;;;;11.09;100.00;100547.03;6312621;22;20011;-86
2022/10/15 01:51:05;;;;;;;42.72;34.75;;;;;;;11.14;100.00;100558.28;6315411;22;20067;-87
2022/10/15 01:53:33;;;;;;;42.55;33.10;;;;;;;11.15;100.00;100552.00;6319702;22;20006;-86
2022/10/15 01:56:05;;;;;;;45.90;31.90;;;;;;;11.13;100.00;100543.25;6321231;22;20071;-86
2022/10/15 01:58:31;;;;;;;43.25;32.47;;;;;;;11.19;100.00;100552.69;6312692;22;20011;-87
2022/10/15 02:00:58;;;;;;;40.47;32.17;;;;;;;11.19;100.00;100545.56;6306681;22;20084;-86
2022/10/15 02:03:23;;;;;;;42.72;32.70;;;;;;;11.21;100.00;100548.16;6305202;22;20014;-87
2022/10/15 02:05:59;;;;;;;42.40;32.78;;;;;;;11.16;100.00;100536.88;6308127;22;20011;-87
2022/10/15 02:08:36;;;;;;;42.13;31.98;;;;;;;11.20;100.00;100539.31;6305389;22;20011;-87
2022/10/15 02:11:14;;;;;;;42.67;33.08;;;;;;;11.17;100.00;100530.63;6304009;22;19999;-85
2022/10/15 02:13:55;;;;;;;45.63;33.97;;;;;;;11.18;100.00;100535.84;6303417;22;20075;-86
2022/10/15 02:16:37;;;;;;;43.95;33.03;;;;;;;11.21;100.00;100541.00;6304521;22;20469;-86
2022/10/15 02:19:14;;;;;;;40.53;31.75;;;;;;;11.20;100.00;100541.06;6304078;22;20078;-86
2022/10/15 02:21:55;;;;;;;49.15;34.53;;;;;;;11.21;100.00;100541.00;6304430;22;20011;-85
2022/10/15 02:24:39;;;;;;;42.55;33.90;;;;;;;11.22;100.00;100539.19;6307567;22;20033;-87
2022/10/15 02:27:06;;;;;;;46.10;33.97;;;;;;;11.23;100.00;100531.09;6279181;22;20366;-88
2022/10/15 02:29:33;;;;;;;46.92;34.95;;;;;;;11.25;100.00;100524.84;6307911;22;20018;-86
2022/10/15 02:32:00;;;;;;;46.97;32.75;;;;;;;11.19;100.00;100510.06;6308557;22;20003;-87
2022/10/15 02:34:29;;;;;;;46.47;34.45;;;;;;;11.22;100.00;100517.88;6309777;22;20006;-86
2022/10/15 02:36:59;;;;;;;46.20;34.35;;;;;;;11.22;100.00;100517.88;6309005;22;20365;-87
2022/10/15 02:39:24;;;;;;;46.80;34.72;;;;;;;11.18;100.00;100508.34;6308306;22;20007;-87
2022/10/15 02:41:52;;;;;;;47.97;33.85;;;;;;;11.20;100.00;100511.78;6307546;22;20069;-88
2022/10/15 02:44:17;;;;;;;45.08;34.30;;;;;;;11.17;100.00;100509.31;6304465;22;19999;-86
2022/10/15 02:46:43;;;;;;;45.22;33.35;;;;;;;11.15;100.00;100505.88;6300725;22;20433;-86
2022/10/15 02:49:08;;;;;;;47.72;33.85;;;;;;;11.11;100.00;100496.34;6273921;22;20068;-85
2022/10/15 02:51:34;;;;;;;44.50;33.22;;;;;;;11.13;100.00;100494.47;6303305;22;20417;-87
2022/10/15 02:54:02;;;;;;;51.80;35.28;;;;;;;11.13;100.00;100494.47;6277500;22;20007;-87
2022/10/15 02:56:28;;;;;;;47.97;34.58;;;;;;;11.15;100.00;100497.88;6304037;22;20428;-87
2022/10/15 02:58:54;;;;;;;49.88;34.88;;;;;;;11.12;100.00;100487.41;6301723;22;20014;-86
2022/10/15 03:01:19;;;;;;;46.90;33.67;;;;;;;11.16;100.00;100488.94;6300825;22;20003;-86
2022/10/15 03:03:44;;;;;;;52.08;34.83;;;;;;;11.16;100.00;100481.81;6269398;22;20090;-86
2022/10/15 03:06:10;;;;;;;51.05;34.20;;;;;;;11.19;100.00;100480.75;6269405;22;19999;-87
2022/10/15 03:08:36;;;;;;;53.95;34.00;;;;;;;11.18;100.00;100476.41;6272496;22;20010;-87
2022/10/15 03:11:02;;;;;;;50.03;32.75;;;;;;;11.21;100.00;100481.53;6276186;22;20014;-86
2022/10/15 03:13:28;;;;;;;49.22;32.75;;;;;;;11.22;100.00;100472.59;6275318;22;20010;-87
2022/10/15 03:15:53;;;;;;;53.05;32.22;;;;;;;11.26;100.00;100483.94;6270483;22;20010;-87
2022/10/15 03:18:19;;;;;;;48.10;31.85;;;;;;;11.23;100.00;100471.63;6269705;22;20082;-86
2022/10/15 03:20:51;;;;;;;47.95;32.42;;;;;;;11.21;100.00;100469.09;6269442;22;20062;-87
2022/10/15 03:23:16;;;;;;;48.35;32.67;;;;;;;11.28;100.00;100479.34;6270749;22;20007;-86
2022/10/15 03:25:41;;;;;;;50.20;31.40;;;;;;;11.23;100.00;100466.31;6268799;22;20114;-86
2022/10/15 03:28:06;;;;;;;52.20;33.88;;;;;;;11.32;100.00;100483.56;6267717;22;20011;-87
2022/10/15 03:30:32;;;;;;;53.70;32.70;;;;;;;11.33;100.00;100486.16;6269302;22;20027;-87
2022/10/15 03:32:57;;;;;;;49.63;33.15;;;;;;;11.29;100.00;100478.44;6273140;22;20007;-87
2022/10/15 03:35:22;;;;;;;51.50;31.88;;;;;;;11.35;100.00;100483.38;6273045;22;20035;-88
2022/10/15 03:37:47;;;;;;;48.30;31.25;;;;;;;11.32;100.00;100484.41;6268136;22;20441;-87
2022/10/15 03:40:13;;;;;;;49.70;32.03;;;;;;;11.36;100.00;100485.09;6281808;22;20003;-88
2022/10/15 03:42:38;;;;;;;49.70;32.15;;;;;;;11.37;100.00;100485.03;6283490;22;20010;-87
2022/10/15 03:45:04;;;;;;;54.72;33.60;;;;;;;11.36;100.00;100480.63;6279678;22;20003;-87
2022/10/15 03:47:29;;;;;;;50.40;31.95;;;;;;;11.35;100.00;100478.91;6271410;22;20058;-86
2022/10/15 03:49:54;;;;;;;47.13;29.83;;;;;;;11.33;100.00;100472.81;6272480;22;20003;-87
2022/10/15 03:52:20;;;;;;;51.67;32.42;;;;;;;11.29;100.00;100455.31;6275388;22;20004;-86
2022/10/15 03:54:45;;;;;;;54.70;34.78;;;;;;;11.34;100.00;100463.88;6276376;22;20049;-87
2022/10/15 03:57:10;;;;;;;56.80;34.60;;;;;;;11.33;100.00;100472.81;6274435;22;20087;-87
2022/10/15 03:59:36;;;;;;;54.47;34.47;;;;;;;11.33;100.00;100470.16;6277298;22;20003;-86
2022/10/15 04:02:01;;;;;;;57.20;35.88;;;;;;;11.36;100.00;100471.75;6278597;22;20086;-86
2022/10/15 04:04:26;;;;;;;58.75;35.10;;;;;;;11.33;100.00;100475.50;6302916;22;20034;-86
2022/10/15 04:06:51;;;;;;;57.22;33.63;;;;;;;11.30;100.00;100472.16;6302617;22;20007;-87
2022/10/15 04:09:17;;;;;;;57.90;34.83;;;;;;;11.33;100.00;100479.94;6305962;22;20010;-87
2022/10/15 04:11:42;;;;;;;60.65;33.75;;;;;;;11.34;100.00;100482.53;6306152;22;20003;-87
2022/10/15 04:14:07;;;;;;;59.28;34.33;;;;;;;11.33;100.00;100470.16;6277489;22;20003;-87
2022/10/15 04:16:33;;;;;;;59.22;36.58;;;;;;;11.31;100.00;100468.53;6303701;22;19999;-88
2022/10/15 04:18:58;;;;;;;59.40;35.47;;;;;;;11.32;100.00;100472.91;6305813;22;20038;-87
2022/10/15 04:21:24;;;;;;;64.38;37.53;;;;;;;11.36;100.00;100474.44;6304757;22;20325;-88
2022/10/15 04:23:49;;;;;;;65.32;36.70;;;;;;;11.37;100.00;100474.34;6307364;22;20057;-88
2022/10/15 04:26:15;;;;;;;71.82;37.92;;;;;;;11.39;100.00;100480.44;6315870;22;19999;-87
2022/10/15 04:28:40;;;;;;;66.15;37.45;;;;;;;11.47;100.00;100491.50;6317799;22;20372;-87
2022/10/15 04:31:05;;;;;;;69.90;39.03;;;;;;;11.47;100.00;100482.66;6329923;22;20014;-87
2022/10/15 04:33:31;;;;;;;71.40;39.40;;;;;;;11.50;100.00;100479.81;6326965;22;20014;-87
2022/10/15 04:36:05;;;;;;;65.88;36.95;;;;;;;11.46;100.00;100473.81;6326390;22;20057;-87
2022/10/15 04:38:30;;;;;;;72.53;39.55;;;;;;;11.50;100.00;100476.28;6321095;22;20003;-86
2022/10/15 04:41:00;;;;;;;73.93;41.03;;;;;;;11.54;100.00;100478.66;6318249;22;20045;-87
2022/10/15 04:43:26;;;;;;;71.35;39.17;;;;;;;11.58;100.00;100479.31;6306850;22;19999;-87
2022/10/15 04:45:58;;;;;;;72.95;40.05;;;;;;;11.57;100.00;100467.81;6306458;22;20037;-87
2022/10/15 04:48:23;;;;;;;73.95;37.97;;;;;;;11.58;100.00;100466.88;6306072;22;20425;-88
2022/10/15 04:50:48;;;;;;;69.55;37.65;;;;;;;11.60;100.00;100464.09;6305812;22;20084;-87
2022/10/15 04:53:14;;;;;;;66.10;37.45;;;;;;;11.62;100.00;100467.53;6304010;22;20078;-87
2022/10/15 04:55:39;;;;;;;70.03;40.00;;;;;;;11.65;100.00;100467.34;6303249;22;20329;-86
2022/10/15 04:58:04;;;;;;;64.97;36.95;;;;;;;11.66;100.00;100458.38;6276856;22;19999;-87
2022/10/15 05:00:30;;;;;;;61.28;36.50;;;;;;;11.66;100.00;100461.94;6306241;22;20681;-88
2022/10/15 05:02:55;;;;;;;66.97;36.65;;;;;;;11.66;100.00;100461.03;6305587;22;20038;-87
2022/10/15 05:05:20;;;;;;;65.25;37.05;;;;;;;11.62;100.00;100447.06;6301989;22;20185;-87
2022/10/15 05:07:46;;;;;;;63.60;36.17;;;;;;;11.68;100.00;100465.34;6301536;22;20432;-87
2022/10/15 05:10:11;;;;;;;60.65;35.55;;;;;;;11.72;100.00;100471.34;6303610;22;20019;-88
2022/10/15 05:12:36;;;;;;;61.63;35.55;;;;;;;11.70;100.00;100468.78;6306371;22;20082;-87
2022/10/15 05:15:02;;;;;;;61.45;37.08;;;;;;;11.75;100.00;100479.16;6306001;22;20739;-87
2022/10/15 05:17:29;;;;;;;60.97;35.92;;;;;;;11.72;100.00;100476.69;6305214;22;20025;-86
2022/10/15 05:19:54;;;;;;;65.30;37.60;;;;;;;11.77;100.00;100474.59;6303940;22;20007;-87
2022/10/15 05:22:20;;;;;;;60.67;35.92;;;;;;;11.78;100.00;100481.63;6305110;22;20474;-86
2022/10/15 05:24:45;;;;;;;65.72;37.63;;;;;;;11.78;100.00;100478.97;6304606;22;19999;-85
2022/10/15 05:27:10;;;;;;;66.78;37.92;;;;;;;11.79;100.00;100477.16;6303828;22;20007;-86
2022/10/15 05:29:37;;;;;;;61.55;36.20;;;;;;;11.74;100.00;100472.09;6304239;22;20022;-86
2022/10/15 05:32:02;;;;;;;62.65;35.88;;;;;;;11.77;100.00;100477.25;6303434;22;20015;-88
2022/10/15 05:34:29;;;;;;;60.17;37.08;;;;;;;11.75;100.00;100475.66;6303959;22;20003;-87
2022/10/15 05:36:54;;;;;;;64.57;38.78;;;;;;;11.75;100.00;100471.16;6302194;22;20002;-88
2022/10/15 05:39:20;;;;;;;58.80;35.90;;;;;;;11.74;100.00;100474.75;6303760;22;20007;-88
2022/10/15 05:41:45;;;;;;;57.38;35.95;;;;;;;11.76;100.00;100483.53;6302200;22;20074;-87
2022/10/15 05:44:10;;;;;;;61.65;37.45;;;;;;;11.73;100.00;100475.72;6303073;22;20452;-87
2022/10/15 05:46:36;;;;;;;57.97;35.72;;;;;;;11.73;100.00;100476.56;6304018;22;20333;-87
2022/10/15 05:49:01;;;;;;;57.58;35.90;;;;;;;11.66;100.00;100479.72;6303901;22;20499;-87
2022/10/15 05:51:27;;;;;;;61.05;34.65;;;;;;;11.63;100.00;100480.78;6305080;22;20084;-88
2022/10/15 05:53:54;;;;;;;57.63;36.08;;;;;;;11.61;100.00;100484.47;6275059;22;20007;-87
2022/10/15 05:56:19;;;;;;;56.33;35.90;;;;;;;11.57;100.00;100473.13;6299905;22;19999;-86
2022/10/15 05:58:45;;;;;;;55.80;34.60;;;;;;;11.55;100.00;100464.38;6301210;22;20018;-87
2022/10/15 06:01:12;;;;;;;55.63;33.30;;;;;;;11.56;100.00;100459.91;6302874;22;20306;-87
2022/10/15 06:03:38;;;;;;;59.38;34.70;;;;;;;11.55;100.00;100460.88;6303905;22;20089;-87
2022/10/15 06:06:11;;;;;;;52.38;32.38;;;;;;;11.52;100.00;100461.91;6303107;22;20064;-88
2022/10/15 06:08:37;;;;;;;53.13;32.67;;;;;;;11.57;100.00;100470.47;6304995;22;20003;-88
2022/10/15 06:11:03;;;;;;;48.58;30.70;;;;;;;11.56;100.00;100468.75;6304178;22;20041;-87
2022/10/15 06:13:28;;;;;;;54.58;32.30;;;;;;;11.59;100.00;100467.72;6305898;22;20015;-87
2022/10/15 06:15:53;;;;;;;53.90;32.53;;;;;;;11.54;100.00;100462.69;6305520;22;20017;-88
2022/10/15 06:18:22;;;;;;;51.83;31.75;;;;;;;11.60;100.00;100472.09;6307307;22;20007;-85
2022/10/15 06:20:51;;;;;;;51.90;30.20;;;;;;;11.60;100.00;100469.44;6306653;22;20068;-87
2022/10/15 06:23:18;;;;;;;49.22;29.30;;;;;;;11.60;100.00;100458.78;6314185;22;19999;-87
2022/10/15 06:25:43;;;;;;;48.10;29.75;;;;;;;11.65;100.00;100462.00;6308442;22;20010;-86
2022/10/15 06:28:09;;;;;;;48.17;29.10;;;;;;;11.67;100.00;100462.78;6318439;22;20175;-87
2022/10/15 06:30:34;;;;;;;46.95;28.58;;;;;;;11.63;100.00;100466.59;6320783;22;20003;-88
2022/10/15 06:32:59;;;;;;;48.13;28.40;;;;;;;11.67;100.00;100468.13;6309732;22;20332;-88
2022/10/15 06:35:25;;;;;;;48.13;28.67;;;;;;;11.69;100.00;100469.72;6273676;22;20000;-87
2022/10/15 06:37:51;;;;;;;47.92;29.25;;;;;;;11.73;100.00;100467.72;6304629;22;19999;-87
2022/10/15 06:40:17;;;;;;;43.72;27.23;;;;;;;11.75;100.00;100464.97;6305079;22;20413;-87
2022/10/15 06:42:42;;;;;;;45.35;28.05;;;;;;;11.75;100.00;100471.16;6306641;22;20035;-87
2022/10/15 06:45:09;;;;;;;44.45;27.70;;;;;;;11.81;100.00;100476.09;6305345;22;20034;-86
2022/10/15 06:47:35;;;;;;;45.42;27.17;;;;;;;11.88;100.00;100471.31;6309696;22;20080;-87
2022/10/15 06:50:01;;;;;;;46.58;27.08;;;;;;;11.91;100.00;100468.41;6308010;22;20082;-87
2022/10/15 06:52:28;;;;;;;41.47;25.25;;;;;;;11.93;100.00;100464.72;6307394;22;20072;-87
2022/10/15 06:54:54;;;;;;;42.92;26.40;;;;;;;11.98;100.00;100464.44;6304366;22;20003;-86
2022/10/15 06:57:19;;;;;;;44.33;26.40;;;;;;;12.02;100.00;100463.28;6305671;22;20073;-87
2022/10/15 06:59:44;;;;;;;42.42;27.35;;;;;;;12.03;100.00;100461.47;6307000;22;20078;-86
2022/10/15 07:02:10;;;;;;;41.30;25.98;;;;;;;12.02;100.00;100465.94;6303210;22;20408;-86
2022/10/15 07:04:35;;;;;;;41.85;25.30;;;;;;;11.96;100.00;100451.19;6302631;22;20074;-86
2022/10/15 07:07:01;;;;;;;43.88;25.70;;;;;;;12.01;100.00;100456.25;6301883;22;20005;-86
2022/10/15 07:09:26;;;;;;;38.78;24.67;;;;;;;12.03;100.00;100456.13;6278085;22;20398;-86
2022/10/15 07:11:52;;;;;;;37.17;24.30;;;;;;;12.05;100.00;100465.75;6311373;22;20059;-86
2022/10/15 07:14:17;;;;;;;40.13;23.83;;;;;;;12.08;100.00;100475.38;6312784;22;19999;-87
2022/10/15 07:16:43;;;;;;;38.00;23.13;;;;;;;12.09;100.00;100475.28;6311464;22;20018;-86
2022/10/15 07:19:08;;;;;;;38.35;24.90;;;;;;;12.16;100.00;100476.63;6292678;22;20014;-89
2022/10/15 07:21:34;;;;;;;36.65;23.95;;;;;;;12.13;100.00;100468.81;6326719;22;20005;-87
2022/10/15 07:23:59;;;;;;;35.22;22.58;;;;;;;12.17;100.00;100482.81;6324064;22;20052;-87
2022/10/15 07:26:28;;;;;;;37.67;24.08;;;;;;;12.16;100.00;100467.72;6281343;22;20428;-86
2022/10/15 07:28:53;;;;;;;35.15;23.90;;;;;;;12.31;100.00;100460.56;6308402;22;20051;-86
2022/10/15 07:31:32;;;;;;;34.90;23.33;;;;;;;12.50;100.00;100463.78;6280878;22;20025;-86
2022/10/15 07:33:57;;;;;;;36.50;23.13;;;;;;;12.68;100.00;100457.22;6306721;22;19999;-85
2022/10/15 07:36:25;;;;;;;34.60;22.27;;;;;;;12.80;100.00;100441.38;6277953;22;20003;-85
2022/10/15 07:38:50;;;;;;;34.70;22.20;;;;;;;12.96;100.00;100442.91;6306750;22;19987;-85
2022/10/15 07:41:15;;;;;;;33.28;22.10;;;;;;;13.09;100.00;100442.94;6306991;22;20030;-86
2022/10/15 07:43:41;;;;;;;34.60;22.15;;;;;;;13.13;100.00;100431.09;6304304;22;20014;-87
2022/10/15 07:46:06;;;;;;;31.00;19.95;;;;;;;13.24;100.00;100432.19;6305636;22;19995;-87
2022/10/15 07:48:32;;;;;;;27.25;19.42;;;;;;;13.26;100.00;100439.16;6303345;22;20003;-87
2022/10/15 07:50:59;;;;;;;28.95;19.30;;;;;;;13.18;100.00;100434.28;6302880;22;20073;-87
2022/10/15 07:53:26;;;;;;;25.00;17.60;;;;;;;13.19;100.00;100430.66;6305149;22;20007;-88
2022/10/15 07:55:51;;;;;;;24.55;17.45;;;;;;;13.27;100.00;100431.97;6305560;22;20078;-87
2022/10/15 07:58:17;;;;;;;22.17;15.63;;;;;;;13.37;100.00;100439.25;6304542;22;20101;-87
2022/10/15 08:00:43;;;;;;;23.05;15.57;;;;;;;13.37;100.00;100425.88;6303732;22;20007;-86
2022/10/15 08:03:08;;;;;;;22.27;15.35;;;;;;;13.52;100.00;100426.66;6300615;22;20429;-86
2022/10/15 08:05:33;;;;;;;22.52;14.25;;;;;;;13.62;100.00;100430.38;6304267;22;20000;-88
2022/10/15 08:07:59;;;;;;;18.90;13.98;;;;;;;13.70;100.00;100424.50;6307155;22;20011;-87
2022/10/15 08:10:25;;;;;;;21.10;14.32;;;;;;;13.83;100.00;100428.00;6306655;22;19999;-89
2022/10/15 08:12:50;;;;;;;17.60;12.68;;;;;;;13.85;100.00;100406.53;6305863;22;20033;-88
2022/10/15 08:15:16;;;;;;;17.50;12.07;;;;;;;13.95;100.00;100410.22;6301383;22;19999;-88
2022/10/15 08:17:42;;;;;;;15.30;11.93;;;;;;;13.92;100.00;100408.66;6304667;22;20076;-87
2022/10/15 08:20:07;;;;;;;15.50;12.07;;;;;;;13.91;100.00;100420.28;6303382;22;20084;-87
2022/10/15 08:22:33;;;;;;;16.67;12.02;;;;;;;13.90;100.00;100402.53;6305165;22;20339;-88
2022/10/15 08:24:58;;;;;;;15.90;11.82;;;;;;;14.08;100.00;100396.81;6305470;22;19998;-90
2022/10/15 08:27:24;;;;;;;15.93;12.10;;;;;;;14.41;100.00;100405.06;6305148;22;20045;-88
2022/10/15 08:29:50;;;;;;;14.85;10.95;;;;;;;14.73;100.00;100412.56;6305987;22;20061;-89
2022/10/15 08:32:15;;;;;;;14.27;11.35;;;;;;;14.84;100.00;100420.66;6305512;22;20007;-87
2022/10/15 08:34:40;;;;;;;14.38;11.35;;;;;;;14.80;100.00;100418.34;6302605;22;20007;-87
2022/10/15 08:37:06;;;;;;;14.13;10.18;;;;;;;14.83;100.00;100413.56;6303361;22;20321;-87
2022/10/15 08:39:31;;;;;;;13.88;11.23;;;;;;;14.91;100.00;100413.00;6301514;22;20007;-87
2022/10/15 08:42:01;;;;;;;15.85;10.60;;;;;;;15.00;100.00;100404.25;6306257;22;20706;-88
2022/10/15 08:44:30;;;;;;;13.88;10.40;;;;;;;15.18;100.00;100404.69;6302165;22;20007;-88
2022/10/15 08:47:06;;;;;;;12.07;9.65;;;;;;;15.19;99.93;100398.34;6278408;22;20042;-87
2022/10/15 08:49:44;;;;;;;13.35;9.70;;;;;;;15.11;99.42;100398.09;6305659;22;19999;-88
2022/10/15 08:52:28;;;;;;;13.27;9.70;;;;;;;14.93;99.46;100403.88;6305925;22;20018;-88
2022/10/15 08:54:55;;;;;;;;;;;;;;;14.98;100.00;100394.63;6307119;22;19995;-87
2022/10/15 08:57:29;;;;;;;13.45;10.13;;;;;;;14.88;100.00;100386.41;6306388;22;19902;-88
2022/10/15 09:00:03;;;;;;;13.63;10.45;;;;;;;14.98;100.00;100384.78;6322142;22;20003;-88
2022/10/15 09:02:34;;;;;;;11.93;9.70;;;;;;;15.16;99.71;100387.84;6291166;22;20015;-89
2022/10/15 09:05:02;;;;;;;13.60;9.45;;;;;;;15.28;99.28;100373.50;6290211;22;20003;-88
2022/10/15 09:07:52;;;;;;;13.43;9.27;;;;;;;15.20;98.29;100365.19;6284715;22;20096;-88
2022/10/15 09:10:31;;;;;;;12.05;8.07;;;;;;;15.13;97.73;100363.97;6278309;22;20004;-87
2022/10/15 09:13:03;;;;;;;11.07;8.48;;;;;;;15.10;98.71;100353.50;6274359;22;20034;-87
2022/10/15 09:15:33;;;;;;;12.02;8.93;;;;;;;15.20;97.86;100357.16;6272514;22;20063;-87
2022/10/15 09:17:58;;;;;;;11.98;7.10;;;;;;;15.24;98.12;100361.31;6273932;22;20073;-89
2022/10/15 09:20:29;;;;;;;9.23;6.80;;;;;;;15.20;97.99;100365.19;6273060;22;20445;-87
2022/10/15 09:22:55;;;;;;;10.05;6.78;;;;;;;15.17;98.67;100366.31;6273201;22;20004;-89
2022/10/15 09:25:22;;;;;;;8.35;5.93;;;;;;;15.01;98.72;100370.28;6272261;22;20432;-89
2022/10/15 09:27:49;;;;;;;7.32;5.90;;;;;;;14.88;99.47;100375.72;6273769;22;20008;-87
2022/10/15 09:30:33;;;;;;;7.95;6.20;;;;;;;14.73;100.00;100364.34;6273709;22;20007;-88
2022/10/15 09:33:07;;;;;;;8.23;5.38;;;;;;;14.64;100.00;100365.03;6275523;22;20105;-87
2022/10/15 09:35:48;;;;;;;7.50;5.45;;;;;;;14.58;100.00;100362.81;6275692;22;20000;-89
2022/10/15 09:38:43;;;;;;;6.93;4.80;;;;;;;14.52;100.00;100358.78;6274412;22;20022;-88
2022/10/15 09:41:27;;;;;;;7.43;5.20;;;;;;;14.49;100.00;100366.19;6276498;22;20074;-89
2022/10/15 09:43:56;;;;;;;5.63;4.70;;;;;;;14.37;100.00;100365.25;6277273;22;20063;-88
2022/10/15 09:46:21;;;;;;;6.90;5.15;;;;;;;14.22;100.00;100363.72;6273469;22;20184;-87
2022/10/15 09:49:22;;;;;;;6.90;5.15;;;;;;;14.12;100.00;100363.50;6271780;22;20359;-87
2022/10/15 09:52:05;;;;;;;7.70;5.30;;;;;;;14.09;100.00;100355.75;6269414;22;20011;-87
2022/10/15 09:54:37;;;;;;;9.18;5.70;;;;;;;14.15;100.00;100350.78;6272937;22;20013;-87
2022/10/15 09:57:02;;;;;;;7.32;5.32;;;;;;;14.21;100.00;100349.44;6285405;22;19995;-85
2022/10/15 09:59:28;;;;;;;6.10;4.70;;;;;;;14.33;100.00;100345.88;6295612;22;19996;-87
2022/10/15 10:02:03;;;;;;;6.22;5.28;;;;;;;14.43;100.00;100341.56;6284885;22;20051;-87
2022/10/15 10:04:30;;;;;;;5.60;4.18;;;;;;;14.42;100.00;100339.84;6318401;22;20010;-89
2022/10/15 10:07:00;;;;;;;5.50;4.47;;;;;;;14.41;100.00;100343.47;6321592;22;20082;-88
2022/10/15 10:09:34;;;;;;;5.05;4.07;;;;;;;14.42;100.00;100339.84;6318392;22;20003;-86
2022/10/15 10:12:01;;;;;;;;;;;;;;;14.54;100.00;100348.78;6294695;22;20015;-88
2022/10/15 10:14:44;;;;;;;6.30;3.65;;;;;;;14.53;100.00;100349.78;6309355;22;19914;-86
2022/10/15 10:17:17;;;;;;;4.90;3.53;;;;;;;14.57;100.00;100340.53;6309178;22;20003;-87
2022/10/15 10:19:44;;;;;;;3.63;3.28;;;;;;;14.63;100.00;100342.78;6310760;22;20013;-87
2022/10/15 10:22:19;;;;;;;5.63;3.40;;;;;;;14.69;100.00;100338.75;6306529;22;20003;-86
2022/10/15 10:24:46;;;;;;;4.03;2.90;;;;;;;14.75;100.00;100340.97;6307787;22;20007;-87
2022/10/15 10:27:28;;;;;;;3.47;2.83;;;;;;;14.85;100.00;100333.94;6304751;22;20010;-87
2022/10/15 10:29:58;;;;;;;2.25;2.05;;;;;;;14.90;100.00;100342.47;6305616;22;20275;-87
2022/10/15 10:32:34;;;;;;;2.35;2.15;;;;;;;14.89;100.00;100335.41;6277976;22;20003;-89
2022/10/15 10:35:02;;;;;;;2.50;2.10;;;;;;;14.89;100.00;100339.94;6306019;22;20019;-88
2022/10/15 10:37:28;;;;;;;3.88;1.90;;;;;;;15.00;100.00;100329.22;6305472;22;20014;-87
2022/10/15 10:39:59;;;;;;;2.65;1.80;;;;;;;15.23;100.00;100345.34;6277544;22;20011;-87
2022/10/15 10:42:34;;;;;;;2.92;1.70;;;;;;;15.33;100.00;100336.44;6305103;22;20014;-88
2022/10/15 10:45:21;;;;;;;2.75;2.17;;;;;;;15.45;100.00;100340.84;6305244;22;20048;-87
2022/10/15 10:47:47;;;;;;;2.53;1.90;;;;;;;15.51;100.00;100335.97;6307303;22;20006;-86
2022/10/15 10:50:32;;;;;;;1.73;1.55;;;;;;;15.50;100.00;100335.13;6278396;22;20003;-87
2022/10/15 10:53:13;;;;;;;4.95;2.10;;;;;;;15.61;100.00;100334.28;6304991;22;20025;-89
2022/10/15 10:55:39;;;;;;;2.22;1.75;;;;;;;15.67;100.00;100336.47;6305041;22;20013;-86
2022/10/15 10:58:14;;;;;;;3.03;2.10;;;;;;;15.61;100.00;100340.47;6305592;22;20420;-88
2022/10/15 11:00:46;;;;;;;2.47;2.00;;;;;;;15.67;100.00;100334.69;6306275;22;20003;-88
2022/10/15 11:03:29;;;;;;;3.40;1.77;;;;;;;15.78;100.00;100333.78;6304093;22;20022;-88
2022/10/15 11:06:21;;;;;;;3.10;2.53;;;;;;;15.79;100.00;100329.28;6304130;22;20003;-89
2022/10/15 11:09:01;;;;;;;3.05;2.63;;;;;;;15.75;100.00;100322.44;6246460;22;20050;-89
2022/10/15 11:11:40;;;;;;;2.35;1.92;;;;;;;15.88;100.00;100331.22;6304842;22;20004;-88